createdAt,value
2023-03-27T00:00:01.930Z,100456.38
2023-03-27T00:02:29.996Z,100463.75
2023-03-27T00:04:56.615Z,100470.09
2023-03-27T00:07:23.197Z,100473.34
2023-03-27T00:09:49.720Z,100481.28
2023-03-27T00:12:16.592Z,100412.19
2023-03-27T00:14:43.109Z,100492.53
2023-03-27T00:17:09.676Z,100495.59
2023-03-27T00:19:37.578Z,100459.75
2023-03-27T00:22:04.285Z,100507.38
2023-03-27T00:24:31.077Z,100515.22
2023-03-27T00:26:57.730Z,100510.19
2023-03-27T00:29:24.265Z,100497.31
2023-03-27T00:31:50.862Z,100520.56
2023-03-27T00:34:17.684Z,100527.06
2023-03-27T00:36:45.604Z,100535.25
2023-03-27T00:39:12.389Z,100522.25
2023-03-27T00:41:39.119Z,100543.94
2023-03-27T00:44:23.692Z,100540.91
2023-03-27T00:46:52.160Z,100503.88
2023-03-27T00:49:19.109Z,100533.34
2023-03-27T00:51:47.944Z,100556.00
2023-03-27T00:54:17.468Z,100541.19
2023-03-27T00:56:45.600Z,100561.88
2023-03-27T00:59:16.091Z,100537.22
2023-03-27T01:01:44.769Z,100572.19
2023-03-27T01:04:12.087Z,100546.44
2023-03-27T01:06:40.146Z,100571.81
2023-03-27T01:09:08.142Z,100565.16
2023-03-27T01:11:50.730Z,100570.69
2023-03-27T01:14:26.839Z,100550.00
2023-03-27T01:17:06.933Z,100554.00
2023-03-27T01:20:12.117Z,100578.94
2023-03-27T01:23:09.795Z,100547.47
2023-03-27T01:26:02.017Z,100562.38
2023-03-27T01:28:38.616Z,100573.41
2023-03-27T01:31:20.630Z,100611.50
2023-03-27T01:33:57.740Z,100610.88
2023-03-27T01:37:03.205Z,100606.28
2023-03-27T01:39:44.197Z,100616.38
2023-03-27T01:42:20.707Z,100613.16
2023-03-27T01:44:52.065Z,100628.94
2023-03-27T01:47:32.865Z,100635.19
2023-03-27T01:50:07.629Z,100616.31
2023-03-27T01:52:38.737Z,100638.94
2023-03-27T01:55:12.620Z,100647.22
2023-03-27T01:57:48.933Z,100619.13
2023-03-27T02:00:20.383Z,100648.19
2023-03-27T02:02:52.066Z,100653.50
2023-03-27T02:05:23.318Z,100655.31
2023-03-27T02:07:53.631Z,100632.88
2023-03-27T02:10:24.904Z,100638.78
2023-03-27T02:12:56.762Z,100667.66
2023-03-27T02:15:28.002Z,100665.03
2023-03-27T02:17:59.933Z,100669.16
2023-03-27T02:20:26.709Z,100667.72
2023-03-27T02:22:57.480Z,100652.69
2023-03-27T02:25:29.819Z,100674.59
2023-03-27T02:28:10.249Z,100678.13
2023-03-27T02:30:43.661Z,100687.59
2023-03-27T02:33:18.234Z,100685.19
2023-03-27T02:35:52.668Z,100699.03
2023-03-27T02:38:28.554Z,100670.03
2023-03-27T02:41:06.839Z,100705.44
2023-03-27T02:44:00.766Z,100711.72
2023-03-27T02:46:46.324Z,100724.88
2023-03-27T02:49:19.530Z,100719.97
2023-03-27T02:51:52.875Z,100728.63
2023-03-27T02:54:26.264Z,100726.28
2023-03-27T02:56:57.813Z,100733.88
2023-03-27T02:59:36.049Z,100741.81
2023-03-27T03:02:07.332Z,100744.56
2023-03-27T03:04:48.512Z,100748.19
2023-03-27T03:07:21.901Z,100736.53
2023-03-27T03:09:48.539Z,100756.25
2023-03-27T03:12:16.439Z,100754.78
2023-03-27T03:14:45.672Z,100765.47
2023-03-27T03:17:13.064Z,100774.25
2023-03-27T03:19:39.863Z,100772.84
2023-03-27T03:22:07.831Z,100762.97
2023-03-27T03:24:35.963Z,100777.81
2023-03-27T03:27:04.163Z,100789.25
2023-03-27T03:29:35.301Z,100786.03
2023-03-27T03:32:22.282Z,100795.63
2023-03-27T03:34:51.755Z,100794.78
2023-03-27T03:37:18.442Z,100781.50
2023-03-27T03:39:45.104Z,100811.53
2023-03-27T03:42:22.629Z,100803.06
2023-03-27T03:44:55.268Z,100809.25
2023-03-27T03:47:22.578Z,100817.00
2023-03-27T03:49:49.940Z,100832.53
2023-03-27T03:52:16.725Z,100834.22
2023-03-27T03:54:44.301Z,100835.06
2023-03-27T03:57:12.239Z,100844.53
2023-03-27T03:59:39.909Z,100852.41
2023-03-27T04:02:23.338Z,100851.56
2023-03-27T04:04:50.013Z,100807.66
2023-03-27T04:07:16.803Z,100848.97
2023-03-27T04:09:46.255Z,100852.47
2023-03-27T04:12:17.965Z,100861.09
2023-03-27T04:14:52.108Z,100860.38
2023-03-27T04:17:49.252Z,100861.41
2023-03-27T04:20:17.037Z,100873.56
2023-03-27T04:22:44.620Z,100878.75
2023-03-27T04:25:11.192Z,100881.28
2023-03-27T04:27:37.812Z,100880.25
2023-03-27T04:30:14.431Z,100877.19
2023-03-27T04:33:02.708Z,100895.91
2023-03-27T04:36:06.502Z,100901.88
2023-03-27T04:39:00.601Z,100901.81
2023-03-27T04:41:27.345Z,100902.72
2023-03-27T04:43:54.320Z,100908.69
2023-03-27T04:46:21.024Z,100882.03
2023-03-27T04:48:54.425Z,100918.44
2023-03-27T04:51:35.482Z,100928.09
2023-03-27T04:54:02.649Z,100922.03
2023-03-27T04:56:29.451Z,100937.72
2023-03-27T04:58:57.045Z,100931.72
2023-03-27T05:01:23.644Z,100942.16
2023-03-27T05:04:10.396Z,100941.38
2023-03-27T05:06:50.118Z,100932.28
2023-03-27T05:09:17.626Z,100951.03
2023-03-27T05:11:44.204Z,100957.28
2023-03-27T05:14:10.861Z,100956.44
2023-03-27T05:16:40.556Z,100955.63
2023-03-27T05:19:07.145Z,100960.97
2023-03-27T05:21:41.486Z,100970.56
2023-03-27T05:24:10.512Z,100969.00
2023-03-27T05:26:38.598Z,100970.66
2023-03-27T05:29:05.344Z,100972.50
2023-03-27T05:31:34.294Z,100973.38
2023-03-27T05:34:20.881Z,100977.78
2023-03-27T05:36:51.420Z,100993.34
2023-03-27T05:39:18.122Z,100993.34
2023-03-27T05:41:46.520Z,100986.69
2023-03-27T05:44:22.145Z,100989.00
2023-03-27T05:46:49.624Z,100996.47
2023-03-27T05:49:25.159Z,100992.88
2023-03-27T05:51:58.012Z,100998.72
2023-03-27T05:54:24.760Z,101003.88
2023-03-27T05:56:58.877Z,100960.50
2023-03-27T05:59:25.671Z,101007.81
2023-03-27T06:01:57.492Z,100999.28
2023-03-27T06:04:28.315Z,101014.34
2023-03-27T06:07:03.084Z,101029.53
2023-03-27T06:09:31.312Z,101029.25
2023-03-27T06:12:17.792Z,101035.09
2023-03-27T06:14:45.837Z,101016.41
2023-03-27T06:17:27.618Z,101051.94
2023-03-27T06:19:59.893Z,101049.94
2023-03-27T06:22:32.455Z,101047.88
2023-03-27T06:25:03.091Z,101057.34
2023-03-27T06:27:29.920Z,101062.28
2023-03-27T06:29:56.464Z,101057.66
2023-03-27T06:32:23.909Z,101056.56
2023-03-27T06:34:52.299Z,101072.81
2023-03-27T06:37:39.849Z,101076.97
2023-03-27T06:40:08.132Z,101066.41
2023-03-27T06:42:35.616Z,101067.16
2023-03-27T06:45:23.283Z,101085.59
2023-03-27T06:48:20.605Z,101077.16
2023-03-27T06:50:52.166Z,101078.59
2023-03-27T06:53:27.309Z,101085.03
2023-03-27T06:55:55.835Z,101097.22
2023-03-27T06:58:24.431Z,101100.06
2023-03-27T07:00:51.390Z,101097.81
2023-03-27T07:03:19.276Z,101102.47
2023-03-27T07:06:21.005Z,101116.44
2023-03-27T07:08:55.593Z,101115.94
2023-03-27T07:11:22.664Z,101121.09
2023-03-27T07:13:55.365Z,101104.31
2023-03-27T07:16:25.771Z,101120.38
2023-03-27T07:18:52.448Z,101132.16
2023-03-27T07:21:18.980Z,101142.28
2023-03-27T07:23:45.629Z,101108.75
2023-03-27T07:26:16.960Z,101146.38
2023-03-27T07:29:00.972Z,101112.75
2023-03-27T07:31:42.332Z,101153.91
2023-03-27T07:34:15.371Z,101149.88
2023-03-27T07:37:11.055Z,101130.63
2023-03-27T07:39:44.550Z,101157.91
2023-03-27T07:42:12.744Z,101146.44
2023-03-27T07:44:58.606Z,101159.94
2023-03-27T07:47:25.393Z,101162.38
2023-03-27T07:49:51.955Z,101166.06
2023-03-27T07:52:22.214Z,101163.88
2023-03-27T07:55:00.938Z,101171.16
2023-03-27T07:57:57.961Z,101171.66
2023-03-27T08:00:27.905Z,101156.44
2023-03-27T08:03:07.227Z,101168.50
2023-03-27T08:05:34.447Z,101157.44
2023-03-27T08:08:07.616Z,101179.28
2023-03-27T08:10:44.119Z,101111.59
2023-03-27T08:13:12.828Z,101187.22
2023-03-27T08:15:39.582Z,101181.50
2023-03-27T08:18:18.828Z,101186.56
2023-03-27T08:20:45.697Z,101187.13
2023-03-27T08:23:12.306Z,101180.97
2023-03-27T08:26:01.838Z,101156.06
2023-03-27T08:28:38.786Z,101189.97
2023-03-27T08:31:10.799Z,101180.13
2023-03-27T08:33:37.833Z,101186.03
2023-03-27T08:36:09.281Z,101182.03
2023-03-27T08:38:37.162Z,101186.72
2023-03-27T08:41:26.282Z,101189.81
2023-03-27T08:44:13.363Z,101187.84
2023-03-27T08:46:44.941Z,101167.47
2023-03-27T08:49:16.384Z,101206.34
2023-03-27T08:52:00.973Z,101204.28
2023-03-27T08:54:29.650Z,101208.22
2023-03-27T08:56:56.851Z,101203.84
2023-03-27T08:59:28.932Z,101202.09
2023-03-27T09:02:03.342Z,101196.25
2023-03-27T09:04:39.875Z,101215.69
2023-03-27T09:07:13.600Z,101193.28
2023-03-27T09:10:03.235Z,101221.19
2023-03-27T09:12:49.708Z,101218.09
2023-03-27T09:15:23.114Z,101205.09
2023-03-27T09:17:58.156Z,101192.72
2023-03-27T09:20:30.002Z,101224.47
2023-03-27T09:23:03.214Z,101222.97
2023-03-27T09:25:52.940Z,101227.94
2023-03-27T09:28:42.619Z,101217.09
2023-03-27T09:31:23.404Z,101207.72
2023-03-27T09:33:50.737Z,101214.34
2023-03-27T09:36:18.587Z,101201.31
2023-03-27T09:38:51.397Z,101198.66
2023-03-27T09:41:31.110Z,101210.28
2023-03-27T09:44:03.130Z,101195.72
2023-03-27T09:46:36.135Z,101190.25
2023-03-27T09:49:11.331Z,101209.03
2023-03-27T09:51:42.761Z,101227.03
2023-03-27T09:54:22.476Z,101227.88
2023-03-27T09:56:51.747Z,101235.97
2023-03-27T09:59:27.952Z,101231.28
2023-03-27T10:02:18.103Z,101243.63
2023-03-27T10:04:57.910Z,101231.38
2023-03-27T10:07:30.576Z,101216.97
2023-03-27T10:10:20.713Z,101246.53
2023-03-27T10:13:12.891Z,101236.84
2023-03-27T10:15:47.279Z,101202.78
2023-03-27T10:18:28.631Z,101233.88
2023-03-27T10:21:18.187Z,101221.63
2023-03-27T10:23:46.998Z,101235.81
2023-03-27T10:26:37.123Z,101247.00
2023-03-27T10:29:20.310Z,101250.22
2023-03-27T10:31:50.276Z,101260.59
2023-03-27T10:34:50.078Z,101275.69
2023-03-27T10:37:35.135Z,101272.34
2023-03-27T10:40:26.727Z,101243.53
2023-03-27T10:43:00.762Z,101259.88
2023-03-27T10:45:27.665Z,101266.19
2023-03-27T10:48:01.516Z,101268.69
2023-03-27T10:50:35.780Z,101228.09
2023-03-27T10:53:11.837Z,101261.63
2023-03-27T10:55:56.591Z,101270.91
2023-03-27T10:58:31.060Z,101266.03
2023-03-27T11:01:01.522Z,101256.00
2023-03-27T11:03:35.087Z,101262.78
2023-03-27T11:06:11.977Z,101283.94
2023-03-27T11:08:51.909Z,101296.03
2023-03-27T11:11:27.398Z,101284.53
2023-03-27T11:14:00.084Z,101288.19
2023-03-27T11:16:32.314Z,101302.50
2023-03-27T11:19:30.613Z,101308.97
2023-03-27T11:22:41.536Z,101321.97
2023-03-27T11:25:19.817Z,101344.78
2023-03-27T11:27:52.790Z,101330.16
2023-03-27T11:30:32.726Z,101334.75
2023-03-27T11:33:09.190Z,101337.53
2023-03-27T11:35:38.927Z,101331.94
2023-03-27T11:38:25.708Z,101353.44
2023-03-27T11:40:53.508Z,101353.81
2023-03-27T11:43:22.105Z,101343.38
2023-03-27T11:45:59.779Z,101346.09
2023-03-27T11:48:54.365Z,101325.34
2023-03-27T11:51:36.347Z,101329.31
2023-03-27T11:54:20.526Z,101303.03
2023-03-27T11:56:53.549Z,101327.41
2023-03-27T11:59:57.067Z,101325.13
2023-03-27T12:02:40.309Z,101329.34
2023-03-27T12:05:20.842Z,101332.59
2023-03-27T12:08:02.025Z,101333.97
2023-03-27T12:10:33.411Z,101325.13
2023-03-27T12:13:41.684Z,101325.91
2023-03-27T12:16:29.059Z,101337.94
2023-03-27T12:19:26.993Z,101338.44
2023-03-27T12:22:24.074Z,101348.91
2023-03-27T12:25:12.203Z,101371.69
2023-03-27T12:28:22.659Z,101372.84
2023-03-27T12:31:41.242Z,101372.13
2023-03-27T12:34:20.282Z,101368.88
2023-03-27T12:36:47.443Z,101362.47
2023-03-27T12:39:18.789Z,101309.34
2023-03-27T12:41:45.961Z,101384.34
2023-03-27T12:44:31.241Z,101392.16
2023-03-27T12:47:08.920Z,101392.28
2023-03-27T12:49:47.992Z,101403.84
2023-03-27T12:52:24.234Z,101429.47
2023-03-27T12:55:27.720Z,101433.56
2023-03-27T12:57:58.916Z,101440.22
2023-03-27T13:00:57.959Z,101405.69
2023-03-27T13:04:01.601Z,101373.44
2023-03-27T13:06:43.081Z,101376.84
2023-03-27T13:09:38.245Z,101378.22
2023-03-27T13:12:28.112Z,101388.44
2023-03-27T13:15:34.799Z,101380.31
2023-03-27T13:18:23.277Z,101377.47
2023-03-27T13:21:00.168Z,101375.94
2023-03-27T13:23:49.524Z,101378.44
2023-03-27T13:26:38.573Z,101371.56
2023-03-27T13:29:15.263Z,101375.34
2023-03-27T13:32:04.907Z,101377.19
2023-03-27T13:35:01.549Z,101367.59
2023-03-27T13:37:46.023Z,101361.31
2023-03-27T13:40:20.368Z,101371.28
2023-03-27T13:42:52.456Z,101351.44
2023-03-27T13:45:24.805Z,101348.50
2023-03-27T13:48:47.500Z,101377.16
2023-03-27T13:51:55.074Z,101373.47
2023-03-27T13:55:10.179Z,101376.03
2023-03-27T13:58:17.169Z,101375.59
2023-03-27T14:01:08.432Z,101371.31
2023-03-27T14:04:23.659Z,101397.84
2023-03-27T14:07:25.200Z,101417.09
2023-03-27T14:10:14.575Z,101415.53
2023-03-27T14:12:58.108Z,101428.41
2023-03-27T14:15:45.566Z,101422.75
2023-03-27T14:18:42.679Z,101434.91
2023-03-27T14:21:17.858Z,101431.69
2023-03-27T14:23:55.531Z,101403.56
2023-03-27T14:26:38.756Z,101392.38
2023-03-27T14:29:05.767Z,101411.34
2023-03-27T14:31:40.486Z,101377.38
2023-03-27T14:34:18.353Z,101387.13
2023-03-27T14:36:46.744Z,101406.72
2023-03-27T14:39:22.094Z,101382.59
2023-03-27T14:41:54.522Z,101397.44
2023-03-27T14:44:23.329Z,101391.47
2023-03-27T14:46:51.889Z,101398.53
2023-03-27T14:49:24.738Z,101396.72
2023-03-27T14:52:01.426Z,101391.78
2023-03-27T14:54:55.233Z,101399.44
2023-03-27T14:57:26.745Z,101392.97
2023-03-27T14:59:57.183Z,101400.16
2023-03-27T15:02:28.313Z,101403.03
2023-03-27T15:05:03.308Z,101397.88
2023-03-27T15:07:34.200Z,101377.16
2023-03-27T15:10:19.639Z,101402.00
2023-03-27T15:13:04.795Z,101421.25
2023-03-27T15:15:38.004Z,101475.81
2023-03-27T15:18:11.503Z,101448.69
2023-03-27T15:20:39.963Z,101437.59
2023-03-27T15:23:15.058Z,101452.09
2023-03-27T15:25:49.534Z,101464.16
2023-03-27T15:28:20.855Z,101460.78
2023-03-27T15:30:51.427Z,101462.19
2023-03-27T15:33:23.064Z,101458.72
2023-03-27T15:35:52.713Z,101451.09
2023-03-27T15:38:26.156Z,101458.59
2023-03-27T15:41:01.963Z,101433.75
2023-03-27T15:43:29.658Z,101459.81
2023-03-27T15:46:02.763Z,101459.78
2023-03-27T15:48:32.124Z,101463.13
2023-03-27T15:51:00.768Z,101449.91
2023-03-27T15:53:33.142Z,101456.25
2023-03-27T15:56:03.250Z,101463.50
2023-03-27T15:58:39.597Z,101454.03
2023-03-27T16:01:18.747Z,101444.81
2023-03-27T16:03:47.255Z,101451.97
2023-03-27T16:06:24.693Z,101439.66
2023-03-27T16:08:51.431Z,101465.25
2023-03-27T16:11:34.629Z,101463.44
2023-03-27T16:14:01.465Z,101470.34
2023-03-27T16:16:30.291Z,101451.88
2023-03-27T16:18:59.338Z,101468.78
2023-03-27T16:21:27.198Z,101473.38
2023-03-27T16:23:54.048Z,101466.84
2023-03-27T16:26:24.678Z,101480.72
2023-03-27T16:28:54.556Z,101479.25
2023-03-27T16:31:21.109Z,101485.53
2023-03-27T16:33:47.696Z,101492.16
2023-03-27T16:36:16.140Z,101496.47
2023-03-27T16:38:43.468Z,101502.31
2023-03-27T16:41:14.324Z,101512.47
2023-03-27T16:43:41.731Z,101502.53
2023-03-27T16:46:16.488Z,101504.31
2023-03-27T16:48:43.133Z,101520.59
2023-03-27T16:51:09.729Z,101519.81
2023-03-27T16:53:36.360Z,101524.06
2023-03-27T16:56:02.924Z,101525.66
2023-03-27T16:58:29.532Z,101534.75
2023-03-27T17:00:56.071Z,101535.66
2023-03-27T17:03:24.068Z,101531.97
2023-03-27T17:05:50.570Z,101538.28
2023-03-27T17:08:17.256Z,101536.88
2023-03-27T17:10:44.742Z,101540.88
2023-03-27T17:13:11.795Z,101548.56
2023-03-27T17:15:38.982Z,101527.38
2023-03-27T17:18:06.220Z,101530.97
2023-03-27T17:20:34.175Z,101553.13
2023-03-27T17:23:01.147Z,101551.13
2023-03-27T17:25:27.720Z,101547.56
2023-03-27T17:27:54.304Z,101563.66
2023-03-27T17:30:34.668Z,101566.31
2023-03-27T17:33:05.323Z,101554.44
2023-03-27T17:35:31.930Z,101569.44
2023-03-27T17:37:59.947Z,101580.59
2023-03-27T17:40:26.468Z,101569.94
2023-03-27T17:42:53.091Z,101574.06
2023-03-27T17:45:19.619Z,101577.19
2023-03-27T17:47:48.076Z,101583.91
2023-03-27T17:50:14.612Z,101587.03
2023-03-27T17:52:41.192Z,101573.84
2023-03-27T17:55:09.479Z,101586.09
2023-03-27T17:57:36.051Z,101591.66
2023-03-27T18:00:06.267Z,101600.75
2023-03-27T18:02:38.968Z,101597.97
2023-03-27T18:05:06.133Z,101605.22
2023-03-27T18:07:32.827Z,101581.91
2023-03-27T18:09:59.498Z,101598.31
2023-03-27T18:12:27.374Z,101611.78
2023-03-27T18:14:53.987Z,101612.91
2023-03-27T18:17:20.516Z,101612.13
2023-03-27T18:19:47.164Z,101613.84
2023-03-27T18:22:13.918Z,101614.84
2023-03-27T18:24:40.526Z,101619.53
2023-03-27T18:27:07.037Z,101624.59
2023-03-27T18:29:35.089Z,101631.53
2023-03-27T18:32:01.648Z,101628.69
2023-03-27T18:34:28.248Z,101635.59
2023-03-27T18:36:54.762Z,101636.66
2023-03-27T18:39:21.600Z,101631.59
2023-03-27T18:41:48.125Z,101645.44
2023-03-27T18:44:15.378Z,101642.38
2023-03-27T18:46:43.482Z,101655.00
2023-03-27T18:49:21.600Z,101660.47
2023-03-27T18:51:51.134Z,101636.31
2023-03-27T18:54:17.664Z,101653.63
2023-03-27T18:56:44.308Z,101661.66
2023-03-27T18:59:10.887Z,101662.84
2023-03-27T19:01:37.444Z,101664.66
2023-03-27T19:04:05.416Z,101657.16
2023-03-27T19:06:32.880Z,101669.25
2023-03-27T19:08:59.483Z,101679.94
2023-03-27T19:11:26.104Z,101681.00
2023-03-27T19:14:28.066Z,101670.34
2023-03-27T19:17:15.054Z,101687.50
2023-03-27T19:20:10.400Z,101692.47
2023-03-27T19:22:49.865Z,101691.91
2023-03-27T19:25:38.598Z,101688.13
2023-03-27T19:28:05.947Z,101698.66
2023-03-27T19:30:33.109Z,101700.91
2023-03-27T19:32:59.938Z,101665.31
2023-03-27T19:35:27.957Z,101690.19
2023-03-27T19:37:54.703Z,101703.19
2023-03-27T19:40:21.827Z,101687.97
2023-03-27T19:42:48.480Z,101699.31
2023-03-27T19:45:15.227Z,101710.81
2023-03-27T19:47:42.229Z,101708.34
2023-03-27T19:50:09.534Z,101708.38
2023-03-27T19:52:57.260Z,101712.84
2023-03-27T19:55:28.058Z,101714.72
2023-03-27T19:57:54.589Z,101721.66
2023-03-27T20:00:21.375Z,101718.41
2023-03-27T20:02:47.944Z,101717.78
2023-03-27T20:05:14.800Z,101715.41
2023-03-27T20:07:41.367Z,101686.84
2023-03-27T20:10:11.040Z,101715.69
2023-03-27T20:12:37.691Z,101701.25
2023-03-27T20:15:11.813Z,101725.13
2023-03-27T20:17:41.928Z,101728.03
2023-03-27T20:20:09.232Z,101713.06
2023-03-27T20:22:46.337Z,101722.69
2023-03-27T20:25:22.668Z,101720.94
2023-03-27T20:27:49.356Z,101727.19
2023-03-27T20:30:16.038Z,101735.03
2023-03-27T20:32:42.687Z,101727.31
2023-03-27T20:35:20.571Z,101727.34
2023-03-27T20:37:50.791Z,101726.66
2023-03-27T20:40:23.373Z,101721.78
2023-03-27T20:42:50.001Z,101722.03
2023-03-27T20:45:17.146Z,101688.16
2023-03-27T20:47:43.760Z,101728.19
2023-03-27T20:50:10.656Z,101714.78
2023-03-27T20:52:37.460Z,101713.19
2023-03-27T20:55:04.523Z,101739.00
2023-03-27T20:57:32.517Z,101739.03
2023-03-27T20:59:59.369Z,101713.63
2023-03-27T21:02:26.085Z,101734.06
2023-03-27T21:04:52.708Z,101742.06
2023-03-27T21:07:19.461Z,101724.31
2023-03-27T21:09:46.335Z,101748.25
2023-03-27T21:12:13.131Z,101689.69
2023-03-27T21:14:41.061Z,101751.03
2023-03-27T21:17:10.995Z,101751.25
2023-03-27T21:19:37.676Z,101756.56
2023-03-27T21:22:04.228Z,101751.38
2023-03-27T21:24:30.888Z,101726.03
2023-03-27T21:26:57.433Z,101751.59
2023-03-27T21:29:24.155Z,101750.75
2023-03-27T21:31:52.285Z,101755.28
2023-03-27T21:34:18.822Z,101753.56
2023-03-27T21:36:45.529Z,101751.38
2023-03-27T21:39:12.256Z,101766.81
2023-03-27T21:41:38.813Z,101755.94
2023-03-27T21:44:05.758Z,101771.22
2023-03-27T21:46:32.406Z,101770.50
2023-03-27T21:49:00.401Z,101767.25
2023-03-27T21:51:26.961Z,101781.13
2023-03-27T21:53:53.489Z,101781.25
2023-03-27T21:56:20.052Z,101751.44
2023-03-27T21:58:46.589Z,101782.31
2023-03-27T22:01:13.128Z,101772.16
2023-03-27T22:03:39.734Z,101775.53
2023-03-27T22:06:12.889Z,101773.16
2023-03-27T22:08:41.191Z,101784.28
2023-03-27T22:11:08.220Z,101789.56
2023-03-27T22:13:35.405Z,101787.78
2023-03-27T22:16:02.328Z,101787.84
2023-03-27T22:18:30.815Z,101794.78
2023-03-27T22:20:57.576Z,101759.81
2023-03-27T22:23:25.495Z,101785.41
2023-03-27T22:25:52.839Z,101753.06
2023-03-27T22:28:19.466Z,101803.59
2023-03-27T22:30:45.972Z,101806.25
2023-03-27T22:33:12.744Z,101807.22
2023-03-27T22:35:39.429Z,101803.03
2023-03-27T22:38:06.046Z,101785.19
2023-03-27T22:40:33.938Z,101819.50
2023-03-27T22:43:00.514Z,101815.25
2023-03-27T22:45:27.040Z,101814.38
2023-03-27T22:47:53.607Z,101796.66
2023-03-27T22:50:20.210Z,101807.00
2023-03-27T22:52:46.811Z,101819.88
2023-03-27T22:55:13.341Z,101832.81
2023-03-27T22:57:41.328Z,101820.00
2023-03-27T23:00:09.100Z,101834.66
2023-03-27T23:02:35.792Z,101839.88
2023-03-27T23:05:02.544Z,101846.00
2023-03-27T23:07:29.210Z,101789.69
2023-03-27T23:09:55.827Z,101852.09
2023-03-27T23:12:22.480Z,101852.09
2023-03-27T23:14:50.408Z,101852.97
2023-03-27T23:17:17.122Z,101861.69
2023-03-27T23:19:43.721Z,101865.19
2023-03-27T23:22:10.348Z,101864.34
2023-03-27T23:24:37.004Z,101790.19
2023-03-27T23:27:03.632Z,101872.22
2023-03-27T23:29:30.419Z,101871.34
2023-03-27T23:31:58.617Z,101876.53
2023-03-27T23:34:25.440Z,101875.84
2023-03-27T23:36:52.242Z,101869.84
2023-03-27T23:39:18.835Z,101880.88
2023-03-27T23:41:45.561Z,101856.25
2023-03-27T23:44:12.276Z,101866.44
2023-03-27T23:46:39.073Z,101887.94
2023-03-27T23:49:07.160Z,101896.66
2023-03-27T23:51:33.845Z,101890.69
2023-03-27T23:54:00.390Z,101872.81
2023-03-27T23:56:27.164Z,101894.28
2023-03-27T23:58:53.821Z,101892.56
